Time;durP1;ratioP1;P1;durP2;ratioP2;P2;SDS_P1;SDS_P2;PMS_P1;PMS_P2;Temp;Humidity;BMP_temperature;BMP_pressure;BME280_temperature;BME280_humidity;BME280_pressure;Samples;Min_cycle;Max_cycle;Signal;HPM_P1;HPM_P2
2023/04/13 00:00:54;;;;;;;10.52;5.82;;;;;;;4.37;100.00;96698.38;5107174;28;20032;-72
2023/04/13 00:03:20;;;;;;;15.65;7.10;;;;;;;4.28;100.00;96692.69;5073058;28;20063;-72
2023/04/13 00:05:45;;;;;;;9.32;5.38;;;;;;;4.24;100.00;96683.22;5090523;28;20054;-71
2023/04/13 00:08:11;;;;;;;10.02;5.60;;;;;;;4.25;100.00;96703.44;5089664;28;20028;-72
2023/04/13 00:10:40;;;;;;;13.30;5.35;;;;;;;4.16;100.00;96682.72;5073358;28;20467;-73
2023/04/13 00:13:06;;;;;;;11.75;4.97;;;;;;;4.22;100.00;96693.00;5091772;28;20076;-72
2023/04/13 00:15:33;;;;;;;8.57;4.97;;;;;;;4.21;100.00;96689.53;5090062;28;20036;-72
2023/04/13 00:17:59;;;;;;;9.88;4.72;;;;;;;4.08;100.00;96684.91;5090195;28;20034;-72
2023/04/13 00:20:25;;;;;;;7.22;4.50;;;;;;;4.04;100.00;96696.56;5090036;28;20402;-72
2023/04/13 00:22:50;;;;;;;9.43;5.00;;;;;;;4.15;100.00;96697.75;5090061;28;20024;-72
2023/04/13 00:25:16;;;;;;;8.95;4.57;;;;;;;4.15;100.00;96703.03;5090086;28;20020;-73
2023/04/13 00:27:43;;;;;;;10.60;5.72;;;;;;;4.18;100.00;96712.63;5090070;28;20059;-72
2023/04/13 00:30:15;;;;;;;16.85;7.20;;;;;;;4.19;100.00;96714.31;5090086;28;20148;-72
2023/04/13 00:32:42;;;;;;;21.13;6.80;;;;;;;4.26;100.00;96721.88;5088528;28;20024;-72
2023/04/13 00:35:08;;;;;;;28.30;10.85;;;;;;;4.33;100.00;96715.38;5090197;28;20098;-72
2023/04/13 00:37:34;;;;;;;25.35;10.10;;;;;;;4.33;100.00;96723.31;5090094;28;20085;-72
2023/04/13 00:40:00;;;;;;;14.35;6.80;;;;;;;4.19;100.00;96704.59;5089810;28;20036;-73
2023/04/13 00:42:25;;;;;;;15.23;6.15;;;;;;;4.19;100.00;96715.19;5089768;28;20016;-73
2023/04/13 00:44:52;;;;;;;16.40;6.68;;;;;;;4.27;100.00;96723.63;5072696;28;20036;-73
2023/04/13 00:47:40;;;;;;;13.50;6.40;;;;;;;4.13;100.00;96719.91;5072856;28;20093;-73
2023/04/13 00:50:06;;;;;;;9.73;5.15;;;;;;;4.03;100.00;96719.50;5090103;28;20028;-72
2023/04/13 00:52:37;;;;;;;15.25;5.85;;;;;;;3.89;100.00;96714.06;5072758;28;20015;-73
2023/04/13 00:55:03;;;;;;;8.10;4.53;;;;;;;3.72;100.00;96714.88;5089665;28;20024;-73
2023/04/13 00:57:28;;;;;;;8.82;4.85;;;;;;;3.86;100.00;96716.00;5089510;28;20024;-72
2023/04/13 00:59:54;;;;;;;10.60;5.05;;;;;;;3.79;100.00;96724.22;5072688;28;20034;-72
2023/04/13 01:02:25;;;;;;;13.30;5.97;;;;;;;3.64;100.00;96721.47;5089590;28;20048;-73
2023/04/13 01:04:52;;;;;;;13.63;6.32;;;;;;;3.58;100.00;96719.97;5073504;28;20078;-73
2023/04/13 01:07:20;;;;;;;17.55;7.15;;;;;;;3.59;100.00;96729.63;5072589;28;20119;-72
2023/04/13 01:09:52;;;;;;;13.38;7.47;;;;;;;3.59;100.00;96731.41;5090468;28;20115;-72
2023/04/13 01:12:29;;;;;;;13.52;6.90;;;;;;;3.65;100.00;96742.56;5089301;28;20064;-72
2023/04/13 01:15:01;;;;;;;12.45;7.50;;;;;;;3.60;100.00;96736.63;5090583;28;20032;-72
2023/04/13 01:17:30;;;;;;;13.80;6.95;;;;;;;3.51;100.00;96737.03;5072565;28;20418;-71
2023/04/13 01:20:00;;;;;;;12.15;6.55;;;;;;;3.43;100.00;96728.63;5092204;28;20032;-71
2023/04/13 01:22:31;;;;;;;13.85;6.88;;;;;;;3.42;100.00;96747.19;5093515;28;20016;-72
2023/04/13 01:25:24;;;;;;;10.83;6.17;;;;;;;3.35;100.00;96738.72;5093549;28;20082;-73
2023/04/13 01:28:01;;;;;;;9.52;5.70;;;;;;;3.35;100.00;96733.44;5093367;28;20031;-73
2023/04/13 01:30:28;;;;;;;10.20;5.18;;;;;;;3.26;100.00;96725.94;5093680;28;20469;-73
2023/04/13 01:32:54;;;;;;;12.48;5.43;;;;;;;3.22;100.00;96724.34;5093378;28;20411;-73
2023/04/13 01:35:21;;;;;;;10.95;4.55;;;;;;;3.04;100.00;96725.19;5076354;28;20027;-73
2023/04/13 01:37:47;;;;;;;11.88;5.45;;;;;;;3.19;100.00;96735.06;5076361;28;20067;-72
2023/04/13 01:40:13;;;;;;;8.13;4.60;;;;;;;3.34;100.00;96734.34;5076226;28;20118;-72
2023/04/13 01:42:40;;;;;;;6.32;3.28;;;;;;;3.22;100.00;96727.84;5094287;28;20034;-73
2023/04/13 01:45:10;;;;;;;5.15;3.35;;;;;;;3.06;100.00;96724.19;5076821;28;20027;-72
2023/04/13 01:47:38;;;;;;;6.28;3.53;;;;;;;3.19;100.00;96725.34;5113380;28;20028;-72
2023/04/13 01:50:12;;;;;;;5.57;3.78;;;;;;;3.14;100.00;96732.63;5096353;28;20023;-72
2023/04/13 01:52:39;;;;;;;5.00;3.33;;;;;;;3.16;100.00;96727.28;5096402;28;20011;-72
2023/04/13 01:55:05;;;;;;;4.85;3.45;;;;;;;3.09;100.00;96729.34;5113193;28;20030;-72
2023/04/13 01:57:34;;;;;;;6.28;3.85;;;;;;;3.08;100.00;96727.63;5113390;28;20024;-73
2023/04/13 02:00:10;;;;;;;6.60;4.32;;;;;;;3.07;100.00;96725.06;5113324;28;20024;-72
2023/04/13 02:02:36;;;;;;;6.63;4.25;;;;;;;3.10;100.00;96725.78;5113213;28;20051;-71
2023/04/13 02:05:02;;;;;;;10.95;5.13;;;;;;;3.04;100.00;96714.63;5114521;28;20031;-72
2023/04/13 02:07:28;;;;;;;7.63;4.30;;;;;;;2.95;100.00;96705.34;5113062;28;20426;-72
2023/04/13 02:09:53;;;;;;;13.40;4.28;;;;;;;3.01;100.00;96714.78;5113047;28;20492;-73
2023/04/13 02:12:19;;;;;;;7.32;3.83;;;;;;;2.85;100.00;96713.75;5114058;28;20047;-73
2023/04/13 02:14:45;;;;;;;9.00;3.80;;;;;;;2.93;100.00;96725.69;5095869;28;20036;-72
2023/04/13 02:17:10;;;;;;;12.20;5.25;;;;;;;2.92;100.00;96731.03;5095812;28;20031;-72
2023/04/13 02:19:36;;;;;;;10.00;5.80;;;;;;;3.02;100.00;96733.19;5095803;28;20463;-72
2023/04/13 02:22:01;;;;;;;11.77;5.88;;;;;;;3.03;100.00;96732.25;5113950;28;20495;-72
2023/04/13 02:24:29;;;;;;;8.13;4.30;;;;;;;3.01;100.00;96731.50;5112609;28;20118;-73
2023/04/13 02:26:55;;;;;;;19.65;6.82;;;;;;;3.09;100.00;96728.47;5095937;28;20027;-73
2023/04/13 02:29:21;;;;;;;22.23;9.27;;;;;;;3.20;100.00;96737.63;5113930;28;20027;-72
2023/04/13 02:31:47;;;;;;;16.55;8.15;;;;;;;3.18;100.00;96726.28;5095083;28;20106;-72
2023/04/13 02:34:13;;;;;;;17.27;7.90;;;;;;;3.17;100.00;96726.34;5112581;28;20023;-73
2023/04/13 02:36:39;;;;;;;17.40;7.60;;;;;;;3.25;100.00;96725.06;5112385;28;20023;-72
2023/04/13 02:39:05;;;;;;;15.38;7.95;;;;;;;3.23;100.00;96723.44;5113836;28;20031;-72
2023/04/13 02:41:30;;;;;;;13.93;7.00;;;;;;;3.28;100.00;96724.06;5112240;28;20023;-72
2023/04/13 02:43:56;;;;;;;16.50;7.18;;;;;;;3.22;100.00;96719.06;5112346;28;20110;-72
2023/04/13 02:46:22;;;;;;;18.80;7.72;;;;;;;3.16;100.00;96716.72;5113557;28;20084;-72
2023/04/13 02:48:47;;;;;;;17.30;8.20;;;;;;;3.15;100.00;96722.91;5112414;28;20053;-73
2023/04/13 02:51:13;;;;;;;19.88;9.05;;;;;;;3.07;100.00;96722.41;5112366;28;20019;-72
2023/04/13 02:53:39;;;;;;;18.35;8.25;;;;;;;3.06;100.00;96723.34;5112049;28;20045;-72
2023/04/13 02:56:05;;;;;;;20.05;9.60;;;;;;;3.10;100.00;96735.50;5112073;28;20567;-73
2023/04/13 02:58:31;;;;;;;20.23;9.10;;;;;;;3.07;100.00;96733.84;5111834;28;20076;-72
2023/04/13 03:00:57;;;;;;;21.52;8.45;;;;;;;2.91;100.00;96735.47;5113443;28;20019;-73
2023/04/13 03:03:23;;;;;;;17.75;8.13;;;;;;;2.79;100.00;96732.50;5112995;28;20118;-71
2023/04/13 03:05:51;;;;;;;12.02;7.22;;;;;;;2.69;100.00;96730.28;5111953;28;20151;-72
2023/04/13 03:08:17;;;;;;;17.33;8.45;;;;;;;2.45;100.00;96727.84;5113372;28;20031;-71
2023/04/13 03:10:43;;;;;;;17.65;8.68;;;;;;;2.33;100.00;96742.44;5111642;28;20402;-72
2023/04/13 03:13:09;;;;;;;30.52;10.73;;;;;;;2.21;100.00;96742.94;5111795;28;20015;-72
2023/04/13 03:15:35;;;;;;;19.83;9.45;;;;;;;2.29;100.00;96756.66;5075764;28;20032;-72
2023/04/13 03:18:02;;;;;;;16.67;7.75;;;;;;;2.16;100.00;96743.13;5080117;28;20020;-72
2023/04/13 03:20:28;;;;;;;15.07;7.45;;;;;;;2.19;100.00;96761.47;5112783;28;20052;-73
2023/04/13 03:22:55;;;;;;;26.15;7.53;;;;;;;2.11;100.00;96753.03;5091560;28;20050;-73
2023/04/13 03:25:20;;;;;;;18.88;7.05;;;;;;;2.04;100.00;96748.06;5074421;28;20024;-73
2023/04/13 03:27:46;;;;;;;19.77;8.50;;;;;;;1.91;100.00;96747.69;5092124;28;20407;-73
2023/04/13 03:30:11;;;;;;;25.45;11.57;;;;;;;2.10;100.00;96760.97;5074274;28;20066;-73
2023/04/13 03:32:37;;;;;;;17.85;8.43;;;;;;;2.18;100.00;96754.47;5091394;28;20048;-73
2023/04/13 03:35:03;;;;;;;29.42;9.68;;;;;;;2.12;100.00;96762.63;5111573;28;20016;-72
2023/04/13 03:37:31;;;;;;;22.48;9.75;;;;;;;2.11;100.00;96754.81;5112414;28;20106;-73
2023/04/13 03:39:59;;;;;;;26.88;11.43;;;;;;;2.19;100.00;96773.78;5094340;28;20046;-73
2023/04/13 03:42:25;;;;;;;26.85;10.05;;;;;;;2.23;100.00;96767.47;5093130;28;20023;-72
2023/04/13 03:44:51;;;;;;;22.23;11.27;;;;;;;2.19;100.00;96765.88;5112434;28;20051;-72
2023/04/13 03:47:16;;;;;;;27.67;13.25;;;;;;;2.33;100.00;96778.50;5094038;28;20024;-72
2023/04/13 03:49:42;;;;;;;26.45;11.25;;;;;;;2.22;100.00;96764.88;5110905;28;20065;-72
2023/04/13 03:52:07;;;;;;;23.45;9.65;;;;;;;2.22;100.00;96776.28;5112240;28;20390;-72
2023/04/13 03:54:33;;;;;;;22.77;9.88;;;;;;;2.23;100.00;96775.38;5110746;28;20041;-72
2023/04/13 03:57:01;;;;;;;19.50;9.68;;;;;;;2.18;100.00;96765.00;5112022;28;20394;-72
2023/04/13 03:59:26;;;;;;;17.88;9.55;;;;;;;2.16;100.00;96763.38;5112138;28;20534;-72
2023/04/13 04:01:52;;;;;;;25.45;12.82;;;;;;;2.09;100.00;96748.75;5090947;28;20072;-81
2023/04/13 04:04:17;;;;;;;28.60;13.38;;;;;;;2.19;100.00;96760.59;5073432;28;20403;-76
2023/04/13 04:06:43;;;;;;;17.90;9.45;;;;;;;2.19;100.00;96763.25;5090187;28;20494;-72
2023/04/13 04:09:09;;;;;;;21.42;9.63;;;;;;;2.24;100.00;96758.66;5090353;28;20039;-73
2023/04/13 04:11:34;;;;;;;28.55;12.75;;;;;;;2.26;100.00;96753.28;5090166;28;20529;-72
2023/04/13 04:14:00;;;;;;;25.10;13.60;;;;;;;2.41;100.00;96758.78;5090198;28;20031;-73
2023/04/13 04:16:25;;;;;;;38.53;16.02;;;;;;;2.51;100.00;96756.59;5090148;28;20399;-73
2023/04/13 04:18:51;;;;;;;49.25;17.45;;;;;;;2.46;100.00;96748.03;5090209;28;20036;-73
2023/04/13 04:21:20;;;;;;;50.72;18.50;;;;;;;2.55;100.00;96772.22;5090227;28;20028;-74
2023/04/13 04:23:46;;;;;;;48.60;21.10;;;;;;;2.62;100.00;96760.50;5091131;28;20080;-74
2023/04/13 04:26:12;;;;;;;29.88;13.07;;;;;;;2.59;100.00;96754.47;5088733;28;20040;-71
2023/04/13 04:28:38;;;;;;;22.08;10.25;;;;;;;2.70;100.00;96755.75;5088237;28;20044;-72
2023/04/13 04:31:09;;;;;;;17.65;8.95;;;;;;;2.70;100.00;96757.53;5087094;28;20036;-72
2023/04/13 04:33:37;;;;;;;21.85;10.70;;;;;;;2.77;100.00;96758.13;5087281;28;20035;-72
2023/04/13 04:36:07;;;;;;;24.35;9.57;;;;;;;2.80;100.00;96766.75;5087741;28;20042;-76
2023/04/13 04:38:32;;;;;;;20.42;7.40;;;;;;;2.89;100.00;96768.16;5070878;28;20177;-73
2023/04/13 04:40:58;;;;;;;15.75;7.55;;;;;;;2.84;100.00;96754.28;5072175;28;20549;-72
2023/04/13 04:43:28;;;;;;;26.70;8.70;;;;;;;2.85;100.00;96754.22;5098728;28;20024;-71
2023/04/13 04:45:56;;;;;;;26.77;9.60;;;;;;;3.00;100.00;96766.75;5108902;28;20046;-72
2023/04/13 04:48:23;;;;;;;20.02;9.35;;;;;;;3.17;100.00;96763.31;5110113;28;20019;-71
2023/04/13 04:50:51;;;;;;;19.85;10.38;;;;;;;3.29;100.00;96758.34;5110009;28;20023;-72
2023/04/13 04:53:17;;;;;;;26.83;12.15;;;;;;;3.73;100.00;96768.63;5111197;28;20560;-72
2023/04/13 04:55:42;;;;;;;30.70;13.68;;;;;;;4.40;100.00;96752.94;5110107;28;20023;-72
2023/04/13 04:58:08;;;;;;;31.10;14.70;;;;;;;5.28;100.00;96751.84;5110174;28;20088;-73
2023/04/13 05:00:34;;;;;;;36.00;14.73;;;;;;;6.25;100.00;96718.97;5110363;28;20018;-71
2023/04/13 05:03:00;;;;;;;34.70;14.55;;;;;;;7.25;100.00;96719.06;5110933;28;20035;-72
2023/04/13 05:05:29;;;;;;;38.60;15.50;;;;;;;7.71;100.00;96687.75;5110048;28;20554;-72
2023/04/13 05:07:55;;;;;;;40.42;17.30;;;;;;;7.72;100.00;96676.13;5111148;28;20031;-72
2023/04/13 05:10:23;;;;;;;37.42;15.70;;;;;;;7.81;100.00;96669.38;5093255;28;20026;-72
2023/04/13 05:12:49;;;;;;;29.48;13.13;;;;;;;8.16;100.00;96668.75;5109945;28;20027;-71
2023/04/13 05:15:15;;;;;;;29.60;13.38;;;;;;;8.00;100.00;96661.88;5092991;28;20082;-72
2023/04/13 05:17:40;;;;;;;25.13;11.70;;;;;;;8.22;100.00;96666.63;5109783;28;20510;-72
2023/04/13 05:20:06;;;;;;;31.08;11.27;;;;;;;8.44;100.00;96674.94;5092577;28;20118;-71
2023/04/13 05:22:32;;;;;;;29.25;11.82;;;;;;;8.39;100.00;96663.75;5092828;28;20136;-72
2023/04/13 05:24:58;;;;;;;24.23;12.23;;;;;;;8.36;100.00;96669.28;5110802;28;20123;-72
2023/04/13 05:27:23;;;;;;;40.85;15.85;;;;;;;8.73;100.00;96671.16;5109852;28;20036;-72
2023/04/13 05:29:50;;;;;;;38.42;15.80;;;;;;;9.38;100.00;96679.91;5109472;28;20051;-72
2023/04/13 05:32:15;;;;;;;34.15;15.60;;;;;;;10.52;91.03;96664.28;5092846;28;20555;-72
2023/04/13 05:34:41;;;;;;;41.33;18.55;;;;;;;11.31;81.85;96659.00;5110938;28;20032;-72
2023/04/13 05:37:07;;;;;;;34.83;15.48;;;;;;;11.89;77.74;96649.84;5110744;28;20032;-72
2023/04/13 05:39:33;;;;;;;32.20;15.85;;;;;;;13.10;67.64;96633.34;5109562;28;20045;-74
2023/04/13 05:42:00;;;;;;;43.78;17.65;;;;;;;13.73;63.72;96634.88;5110062;28;20038;-76
2023/04/13 05:44:25;;;;;;;70.88;33.13;;;;;;;13.73;71.97;96652.84;5092772;28;20114;-72
2023/04/13 05:46:51;;;;;;;35.78;18.20;;;;;;;14.59;70.32;96643.13;5092418;28;20153;-73
2023/04/13 05:49:16;;;;;;;28.05;15.30;;;;;;;15.32;62.81;96624.59;5109428;28;20058;-72
2023/04/13 05:51:42;;;;;;;75.00;36.22;;;;;;;16.25;55.45;96609.06;5110840;28;20019;-71
2023/04/13 05:54:12;;;;;;;36.17;17.63;;;;;;;17.13;49.92;96594.69;5110830;28;20487;-72
2023/04/13 05:56:38;;;;;;;28.60;15.95;;;;;;;17.88;46.83;96573.13;5109467;28;20454;-72
2023/04/13 05:59:04;;;;;;;35.72;16.58;;;;;;;18.77;46.63;96573.31;5092366;28;20027;-72
2023/04/13 06:01:30;;;;;;;35.75;15.15;;;;;;;19.16;43.15;96551.78;5092454;28;20372;-72
2023/04/13 06:03:56;;;;;;;35.33;17.63;;;;;;;19.19;43.52;96546.00;5108939;28;20519;-72
2023/04/13 06:06:22;;;;;;;28.10;18.23;;;;;;;19.25;45.15;96553.44;5111120;28;20050;-72
2023/04/13 06:08:48;;;;;;;26.60;15.43;;;;;;;19.93;41.09;96532.00;5113188;28;20031;-72
2023/04/13 06:11:14;;;;;;;28.02;14.88;;;;;;;20.63;43.24;96540.09;5113108;28;20453;-72
2023/04/13 06:13:40;;;;;;;24.38;12.25;;;;;;;20.46;41.57;96533.06;5114572;28;20027;-72
2023/04/13 06:16:07;;;;;;;20.77;11.55;;;;;;;20.60;40.38;96524.16;5113013;28;20042;-72
2023/04/13 06:18:33;;;;;;;19.95;12.10;;;;;;;20.64;43.17;96536.31;5112910;28;20031;-73
2023/04/13 06:20:58;;;;;;;38.22;18.98;;;;;;;21.30;42.50;96534.72;5113105;28;20050;-73
2023/04/13 06:23:24;;;;;;;35.95;16.63;;;;;;;21.47;41.77;96520.75;5095732;28;20031;-73
2023/04/13 06:25:50;;;;;;;22.45;13.77;;;;;;;21.19;40.64;96505.28;5114376;28;20047;-71
2023/04/13 06:28:16;;;;;;;27.23;14.10;;;;;;;20.84;39.84;96491.31;5112766;28;20031;-73
2023/04/13 06:30:42;;;;;;;27.17;13.35;;;;;;;20.97;40.37;96501.56;5114139;28;20456;-71
2023/04/13 06:33:07;;;;;;;38.20;16.20;;;;;;;20.54;40.06;96467.81;5112351;28;20439;-72
2023/04/13 06:35:34;;;;;;;23.95;13.82;;;;;;;20.65;40.20;96491.81;5112946;28;20019;-73
2023/04/13 06:38:01;;;;;;;28.75;13.15;;;;;;;21.27;39.80;96497.00;5095790;28;20040;-73
2023/04/13 06:40:27;;;;;;;38.78;18.40;;;;;;;21.64;42.37;96515.97;5095662;28;20406;-74
2023/04/13 06:42:53;;;;;;;28.85;13.88;;;;;;;20.40;42.76;96498.47;5112498;28;20028;-73
2023/04/13 06:45:19;;;;;;;23.27;11.45;;;;;;;20.88;39.20;96460.03;5112526;28;20501;-75
2023/04/13 06:47:45;;;;;;;19.58;11.63;;;;;;;19.07;40.58;96433.53;5112534;28;20036;-75
2023/04/13 06:50:14;;;;;;;38.97;11.88;;;;;;;20.32;39.75;96485.81;5102420;28;20032;-74
2023/04/13 06:52:46;;;;;;;23.70;11.30;;;;;;;21.63;37.15;96489.78;5075147;28;20097;-74
2023/04/13 06:55:13;;;;;;;18.42;8.75;;;;;;;21.98;35.24;96466.38;5074839;28;20024;-72
2023/04/13 06:57:39;;;;;;;14.35;8.30;;;;;;;21.03;36.33;96441.84;5092034;28;20024;-72
2023/04/13 07:00:06;;;;;;;14.00;8.90;;;;;;;22.29;35.58;96476.97;5074844;28;20336;-72
2023/04/13 07:02:32;;;;;;;21.23;8.02;;;;;;;22.37;35.51;96468.66;5091879;28;20051;-73
2023/04/13 07:04:57;;;;;;;14.13;8.15;;;;;;;22.13;35.26;96451.66;5108116;28;20027;-72
2023/04/13 07:07:23;;;;;;;17.92;9.90;;;;;;;22.97;34.53;96460.84;5111934;28;20490;-73
2023/04/13 07:09:49;;;;;;;17.77;11.85;;;;;;;22.26;35.74;96461.03;5112257;28;20027;-73
2023/04/13 08:47:43;;;;;;;7.13;2.47;;;;;;;30.23;23.49;96307.56;5124393;28;20414;-74
2023/04/13 08:50:08;;;;;;;4.32;2.10;;;;;;;30.80;23.78;96325.69;5103211;28;20037;-75
2023/04/13 08:52:35;;;;;;;5.38;2.40;;;;;;;31.34;23.21;96324.06;5006626;28;20029;-75
2023/04/13 08:55:03;;;;;;;4.78;2.28;;;;;;;29.85;23.67;96277.88;5016652;28;20025;-75
2023/04/13 08:57:30;;;;;;;5.50;2.30;;;;;;;30.33;24.29;96297.50;5043993;28;20507;-74
2023/04/13 08:59:57;;;;;;;4.90;2.22;;;;;;;31.47;23.02;96317.31;5127100;28;20077;-75
2023/04/13 09:02:27;;;;;;;5.70;2.47;;;;;;;30.02;23.66;96274.06;5110363;28;20573;-75
2023/04/13 09:04:54;;;;;;;3.67;2.00;;;;;;;31.30;22.80;96311.81;5127170;28;20826;-75
2023/04/13 09:07:27;;;;;;;5.22;2.13;;;;;;;30.69;23.43;96285.19;5080310;28;20037;-75
2023/04/13 09:09:58;;;;;;;5.68;1.90;;;;;;;31.59;22.27;96307.81;5006865;28;20117;-75
2023/04/13 09:12:25;;;;;;;4.38;2.08;;;;;;;31.41;22.02;96285.16;5024429;28;20138;-75
2023/04/13 09:14:51;;;;;;;5.35;2.47;;;;;;;30.73;23.37;96271.72;5006136;28;20037;-75
2023/04/13 09:17:26;;;;;;;2.83;1.85;;;;;;;31.45;22.97;96300.97;5023010;28;20083;-74
2023/04/13 09:19:52;;;;;;;3.22;2.15;;;;;;;31.75;22.54;96289.47;5022682;28;20101;-75
2023/04/13 09:22:17;;;;;;;4.47;1.98;;;;;;;32.19;21.94;96298.56;5006345;28;20033;-75
2023/04/13 09:24:43;;;;;;;5.75;2.00;;;;;;;31.82;22.20;96284.56;5116996;27;20080;-73
2023/04/13 09:27:22;;;;;;;2.90;2.00;;;;;;;31.90;22.30;96294.38;5126801;28;20050;-74
2023/04/13 09:29:53;;;;;;;3.00;1.85;;;;;;;31.02;22.63;96257.53;5127066;28;20015;-74
2023/04/13 09:32:26;;;;;;;4.05;1.70;;;;;;;32.18;21.45;96277.50;5126734;28;20497;-75
2023/04/13 09:34:58;;;;;;;1.92;1.70;;;;;;;32.01;21.66;96277.59;5126428;28;20524;-74
2023/04/13 09:37:27;;;;;;;3.90;1.70;;;;;;;32.64;21.05;96274.09;5047842;28;20037;-74
2023/04/13 09:39:53;;;;;;;3.50;2.15;;;;;;;32.22;21.27;96250.97;5005830;28;20145;-75
2023/04/13 09:42:19;;;;;;;3.58;1.70;;;;;;;32.53;21.31;96257.63;5096303;28;20089;-75
2023/04/13 09:44:55;;;;;;;4.55;1.90;;;;;;;33.10;20.52;96258.63;5127414;27;20027;-74
2023/04/13 09:47:21;;;;;;;2.55;1.80;;;;;;;30.82;21.04;96192.88;5103039;28;20052;-75
2023/04/13 09:49:46;;;;;;;3.67;1.70;;;;;;;30.54;21.49;96200.22;5095435;28;20019;-76
2023/04/13 09:52:22;;;;;;;10.60;1.88;;;;;;;31.21;21.59;96208.34;5095443;28;20031;-74
2023/04/13 09:54:49;;;;;;;5.28;2.13;;;;;;;32.01;21.07;96227.78;5112518;28;20064;-75
2023/04/13 09:57:28;;;;;;;7.47;2.90;;;;;;;31.25;21.04;96198.44;5112586;28;20428;-75
2023/04/13 09:59:55;;;;;;;2.78;1.95;;;;;;;31.09;21.69;96202.09;5112389;28;20383;-75
2023/04/13 10:02:21;;;;;;;4.07;2.30;;;;;;;32.03;21.14;96222.00;5069106;28;20118;-75
2023/04/13 10:04:46;;;;;;;2.83;1.90;;;;;;;32.46;20.98;96218.22;5008641;28;20030;-75
2023/04/13 10:07:12;;;;;;;6.50;1.83;;;;;;;32.55;20.18;96203.63;4992566;28;20062;-74
2023/04/13 10:09:43;;;;;;;3.22;1.77;;;;;;;33.73;19.83;96234.53;5008970;28;20038;-74
2023/04/13 10:12:13;;;;;;;2.65;1.75;;;;;;;32.36;20.43;96185.78;4993083;28;20111;-74
2023/04/13 10:14:42;;;;;;;2.80;2.00;;;;;;;32.59;20.71;96202.03;5008735;28;20034;-74
2023/04/13 10:17:44;;;;;;;3.47;1.88;;;;;;;33.09;20.28;96203.47;4992389;28;20393;-74
2023/04/13 10:20:12;;;;;;;2.70;2.20;;;;;;;33.35;20.01;96207.22;5010210;28;20032;-75
2023/04/13 10:22:40;;;;;;;3.15;1.83;;;;;;;33.42;19.94;96203.06;5009856;28;20038;-75
2023/04/13 10:25:06;;;;;;;3.47;2.00;;;;;;;33.12;20.26;96195.47;5008564;28;20466;-74
2023/04/13 10:27:32;;;;;;;4.65;2.72;;;;;;;32.50;20.69;96183.38;4992228;28;20061;-75
2023/04/13 10:29:59;;;;;;;4.28;2.10;;;;;;;32.10;20.75;96165.38;5008669;28;20050;-75
2023/04/13 10:32:26;;;;;;;3.75;2.28;;;;;;;32.52;20.48;96189.47;5009887;28;20022;-75
2023/04/13 10:34:52;;;;;;;5.00;2.00;;;;;;;31.75;21.06;96161.41;4992154;28;20095;-75
2023/04/13 10:37:27;;;;;;;3.50;2.30;;;;;;;31.39;22.01;96163.78;4992258;28;20030;-75
2023/04/13 10:40:09;;;;;;;2.78;1.90;;;;;;;32.76;20.76;96201.03;5010438;28;20381;-75
2023/04/13 10:42:42;;;;;;;5.25;2.45;;;;;;;33.09;21.29;96212.63;5111851;28;20027;-75
2023/04/13 10:45:27;;;;;;;3.97;2.22;;;;;;;33.57;20.36;96207.81;5111579;28;20034;-75
2023/04/13 10:47:54;;;;;;;4.38;1.98;;;;;;;33.69;20.03;96216.75;5095223;28;20045;-75
2023/04/13 10:50:22;;;;;;;2.20;1.65;;;;;;;34.33;19.25;96210.81;5086322;28;20019;-76
2023/04/13 10:53:05;;;;;;;7.65;2.17;;;;;;;35.12;18.97;96208.25;5111258;28;20024;-75
2023/04/13 10:55:35;;;;;;;8.88;2.47;;;;;;;35.83;18.78;96217.16;5111568;28;20080;-76
2023/04/13 10:58:01;;;;;;;5.72;2.35;;;;;;;36.32;18.51;96223.53;5111388;28;20051;-74
2023/04/13 11:00:29;;;;;;;2.78;2.28;;;;;;;35.31;19.45;96195.38;5079231;28;20168;-75
2023/04/13 11:02:58;;;;;;;6.80;2.63;;;;;;;34.71;19.79;96177.72;5093973;28;20215;-75
2023/04/13 11:05:25;;;;;;;2.83;2.05;;;;;;;32.29;20.82;96146.41;5075193;28;20117;-75
2023/04/13 11:07:52;;;;;;;2.80;1.90;;;;;;;33.25;20.97;96171.94;5032473;28;20031;-75
2023/04/13 11:10:26;;;;;;;4.38;2.28;;;;;;;32.98;21.14;96163.75;5093969;28;20023;-74
2023/04/13 11:12:53;;;;;;;3.55;2.72;;;;;;;34.06;20.67;96172.16;5110932;28;20028;-76
2023/04/13 11:15:26;;;;;;;4.50;2.40;;;;;;;34.85;19.34;96170.47;5110831;28;20024;-75
2023/04/13 11:17:54;;;;;;;4.43;2.30;;;;;;;34.75;19.34;96164.09;5112062;28;20027;-76
2023/04/13 11:20:38;;;;;;;4.03;2.20;;;;;;;33.03;20.83;96138.00;5112085;28;20030;-75
2023/04/13 11:23:05;;;;;;;3.13;2.35;;;;;;;33.40;21.03;96162.84;5049549;28;20032;-75
2023/04/13 11:25:32;;;;;;;4.53;1.92;;;;;;;33.78;20.28;96157.69;5007916;28;20108;-74
2023/04/13 11:28:03;;;;;;;3.30;2.08;;;;;;;33.40;20.85;96141.50;4991331;28;20036;-74
2023/04/13 11:30:30;;;;;;;5.88;2.28;;;;;;;34.03;20.48;96156.88;5012217;28;20035;-76
2023/04/13 11:32:58;;;;;;;3.60;2.40;;;;;;;36.18;18.75;96179.91;5110649;28;20027;-75
2023/04/13 11:35:24;;;;;;;5.53;2.17;;;;;;;35.39;19.09;96153.06;5110585;28;20031;-75
2023/04/13 11:37:51;;;;;;;3.88;2.53;;;;;;;35.22;20.32;96153.44;5110617;28;20471;-75
2023/04/13 11:40:20;;;;;;;5.88;2.33;;;;;;;35.73;18.76;96154.00;5110355;28;20066;-76
2023/04/13 11:42:48;;;;;;;3.28;2.28;;;;;;;35.19;19.69;96142.03;5107072;28;20398;-76
2023/04/13 11:45:17;;;;;;;3.78;2.10;;;;;;;34.65;19.42;96126.06;5007294;28;20041;-75
2023/04/13 11:47:44;;;;;;;6.53;2.65;;;;;;;34.99;20.41;96140.13;5007610;28;20034;-75
2023/04/13 11:50:11;;;;;;;4.57;2.10;;;;;;;35.81;20.57;96163.69;5007728;28;20027;-76
2023/04/13 11:52:37;;;;;;;5.15;3.00;;;;;;;34.37;20.26;96126.63;5110422;28;20107;-75
2023/04/13 11:55:05;;;;;;;2.45;1.77;;;;;;;33.71;20.35;96114.69;5054359;28;20588;-75
2023/04/13 11:57:34;;;;;;;3.55;2.22;;;;;;;33.99;20.32;96127.19;5007208;28;20034;-75
2023/04/13 12:00:00;;;;;;;4.85;2.20;;;;;;;33.74;20.56;96116.91;5007212;28;20489;-76
2023/04/13 12:02:26;;;;;;;2.95;2.08;;;;;;;33.58;19.97;96121.56;5008225;28;20025;-75
2023/04/13 12:04:52;;;;;;;13.02;9.73;;;;;;;34.82;19.78;96134.88;5053694;28;20088;-75
2023/04/13 12:07:18;;;;;;;4.53;2.53;;;;;;;35.70;19.06;96137.06;5109863;28;20023;-75
2023/04/13 12:09:49;;;;;;;4.43;2.50;;;;;;;36.96;18.31;96161.06;5109610;28;20381;-75
2023/04/13 12:12:20;;;;;;;2.50;2.00;;;;;;;36.36;18.55;96134.63;5061892;28;20025;-75
2023/04/13 12:14:56;;;;;;;4.90;2.80;;;;;;;35.29;19.37;96117.78;5076142;28;20449;-75
2023/04/13 12:17:22;;;;;;;3.42;2.65;;;;;;;35.11;19.17;96120.38;5086885;28;20060;-75
2023/04/13 12:19:53;;;;;;;5.65;2.60;;;;;;;33.66;20.36;96100.78;5007047;28;20453;-75
2023/04/13 12:22:19;;;;;;;9.65;3.05;;;;;;;32.92;21.43;96098.31;5055564;28;20076;-75
2023/04/13 12:24:45;;;;;;;7.28;2.92;;;;;;;32.57;21.87;96103.69;5110038;28;20024;-75
2023/04/13 12:27:10;;;;;;;4.55;1.92;;;;;;;33.60;20.39;96119.38;5014673;28;20018;-75
2023/04/13 12:29:39;;;;;;;3.13;2.05;;;;;;;34.63;19.90;96121.91;5108936;28;20059;-74
2023/04/13 12:32:15;;;;;;;4.25;2.53;;;;;;;35.53;19.30;96144.94;5108956;28;20092;-75
2023/04/13 12:34:42;;;;;;;4.57;2.63;;;;;;;35.69;18.91;96129.81;5032877;28;20030;-75
2023/04/13 12:37:09;;;;;;;4.80;2.40;;;;;;;35.45;19.88;96123.25;4996804;28;20034;-75
2023/04/13 12:39:34;;;;;;;3.38;2.28;;;;;;;35.55;18.78;96124.03;5007909;28;20076;-75
2023/04/13 12:42:00;;;;;;;2.60;1.98;;;;;;;35.42;19.44;96119.09;4992985;28;20057;-76
2023/04/13 12:44:26;;;;;;;3.55;2.05;;;;;;;35.86;18.69;96111.63;5087913;28;20029;-76
2023/04/13 12:46:51;;;;;;;2.53;1.85;;;;;;;35.66;18.85;96097.81;4990238;28;20508;-75
2023/04/13 12:49:17;;;;;;;2.90;2.33;;;;;;;35.32;19.16;96077.41;5020989;28;20106;-75
2023/04/13 12:51:42;;;;;;;3.72;2.13;;;;;;;33.19;20.87;96057.41;5092499;28;20023;-75
2023/04/13 12:54:12;;;;;;;5.20;1.95;;;;;;;32.16;21.89;96059.13;5017764;28;20026;-74
2023/04/13 12:56:39;;;;;;;5.22;2.10;;;;;;;30.85;22.38;96034.91;5007628;28;20018;-75
2023/04/13 12:59:05;;;;;;;4.20;2.38;;;;;;;31.14;22.61;96047.41;5006413;28;20062;-75
2023/04/13 13:01:31;;;;;;;6.13;2.67;;;;;;;32.00;21.85;96070.31;5006246;28;20086;-75
2023/04/13 13:03:56;;;;;;;3.95;2.33;;;;;;;31.88;22.12;96064.13;5007576;28;20030;-75